createdAt,value
2023-04-18T00:01:29.415Z,89.63
2023-04-18T00:04:35.473Z,90.06
2023-04-18T00:07:46.280Z,90.42
2023-04-18T00:10:52.362Z,90.54
2023-04-18T00:14:00.172Z,90.83
2023-04-18T00:18:12.960Z,91.29
2023-04-18T00:21:25.917Z,91.07
2023-04-18T00:24:34.595Z,91.02
2023-04-18T00:27:42.665Z,91.53
2023-04-18T00:30:51.073Z,92.20
2023-04-18T00:33:57.910Z,91.76
2023-04-18T00:37:04.014Z,91.69
2023-04-18T00:40:21.772Z,91.86
2023-04-18T00:43:28.490Z,91.77
2023-04-18T00:46:35.319Z,91.95
2023-04-18T00:49:42.010Z,91.96
2023-04-18T00:52:52.621Z,91.79
2023-04-18T00:56:01.602Z,91.72
2023-04-18T00:59:10.511Z,91.11
2023-04-18T01:02:17.816Z,91.58
2023-04-18T01:05:41.739Z,91.66
2023-04-18T01:08:49.282Z,91.59
2023-04-18T01:12:00.675Z,91.43
2023-04-18T01:15:07.851Z,91.41
2023-04-18T01:18:17.528Z,91.20
2023-04-18T01:22:12.659Z,90.89
2023-04-18T01:25:23.498Z,90.94
2023-04-18T01:28:30.166Z,91.03
2023-04-18T01:31:39.205Z,90.59
2023-04-18T01:34:46.439Z,91.19
2023-04-18T01:37:59.468Z,91.18
2023-04-18T01:41:16.836Z,91.32
2023-04-18T01:44:23.753Z,91.02
2023-04-18T01:47:29.803Z,91.18
2023-04-18T01:50:36.823Z,91.37
2023-04-18T01:53:42.886Z,91.19
2023-04-18T01:56:53.187Z,91.74
2023-04-18T01:59:59.541Z,92.06
2023-04-18T02:03:07.011Z,91.54
2023-04-18T02:06:13.259Z,91.63
2023-04-18T02:09:20.411Z,91.78
2023-04-18T02:12:29.169Z,91.52
2023-04-18T02:15:36.254Z,91.18
2023-04-18T02:18:42.218Z,90.87
2023-04-18T02:21:49.095Z,90.49
2023-04-18T02:24:55.109Z,90.81
2023-04-18T02:28:16.811Z,90.89
2023-04-18T02:31:44.921Z,90.30
2023-04-18T02:34:55.012Z,90.24
2023-04-18T02:38:01.356Z,90.26
2023-04-18T02:41:15.369Z,90.94
2023-04-18T02:44:28.318Z,90.83
2023-04-18T02:47:47.077Z,90.54
2023-04-18T02:51:04.263Z,91.00
2023-04-18T02:54:13.284Z,90.91
2023-04-18T02:57:42.010Z,90.93
2023-04-18T03:01:13.355Z,91.12
2023-04-18T03:04:41.875Z,91.15
2023-04-18T03:07:49.583Z,91.15
2023-04-18T03:10:57.170Z,90.77
2023-04-18T03:14:06.015Z,90.75
2023-04-18T03:17:36.531Z,90.38
2023-04-18T03:20:45.783Z,90.26
2023-04-18T03:23:53.422Z,90.17
2023-04-18T03:27:02.492Z,89.71
2023-04-18T03:30:15.364Z,89.62
2023-04-18T03:33:29.079Z,89.37
2023-04-18T03:36:47.295Z,89.34
2023-04-18T03:39:55.109Z,89.43
2023-04-18T03:43:05.036Z,88.93
2023-04-18T03:46:12.116Z,89.74
2023-04-18T03:49:20.989Z,89.58
2023-04-18T03:52:29.839Z,90.09
2023-04-18T03:55:36.744Z,89.42
2023-04-18T03:58:44.205Z,89.69
2023-04-18T04:01:50.909Z,89.55
2023-04-18T04:05:12.158Z,89.10
2023-04-18T04:08:31.798Z,88.68
2023-04-18T04:11:38.800Z,88.86
2023-04-18T04:14:53.845Z,88.42
2023-04-18T04:18:00.735Z,88.70
2023-04-18T04:21:21.154Z,88.93
2023-04-18T04:24:33.193Z,88.73
2023-04-18T04:27:39.750Z,89.06
2023-04-18T04:30:49.179Z,88.28
2023-04-18T04:33:55.856Z,87.81
2023-04-18T04:37:06.500Z,87.75
2023-04-18T04:40:19.569Z,87.95
2023-04-18T04:44:04.502Z,86.83
2023-04-18T04:47:14.405Z,86.66
2023-04-18T04:50:22.564Z,86.37
2023-04-18T04:53:33.344Z,85.94
2023-04-18T04:56:41.657Z,85.53
2023-04-18T04:59:47.665Z,84.89
2023-04-18T05:02:55.664Z,85.14
2023-04-18T05:06:03.222Z,84.51
2023-04-18T05:09:12.567Z,84.76
2023-04-18T05:12:18.445Z,84.29
2023-04-18T05:15:25.942Z,84.69
2023-04-18T05:18:34.361Z,84.10
2023-04-18T05:21:43.797Z,84.20
2023-04-18T05:24:52.422Z,83.51
2023-04-18T05:27:59.112Z,82.39
2023-04-18T05:31:05.166Z,80.71
2023-04-18T05:34:12.382Z,79.64
2023-04-18T05:37:18.696Z,79.36
2023-04-18T05:40:30.332Z,78.29
2023-04-18T05:43:36.143Z,78.92
2023-04-18T05:46:43.080Z,78.32
2023-04-18T05:49:49.086Z,78.53
2023-04-18T05:52:59.150Z,77.88
2023-04-18T05:56:08.880Z,78.06
2023-04-18T05:59:16.410Z,76.06
2023-04-18T06:02:22.620Z,75.68
2023-04-18T06:05:32.792Z,76.68
2023-04-18T06:08:38.800Z,75.97
2023-04-18T06:11:48.224Z,76.29
2023-04-18T06:14:54.159Z,75.80
2023-04-18T06:18:00.958Z,75.51
2023-04-18T06:21:06.956Z,75.98
2023-04-18T06:24:13.867Z,75.93
2023-04-18T06:27:30.516Z,75.40
2023-04-18T06:30:38.088Z,75.10
2023-04-18T06:33:43.925Z,75.28
2023-04-18T06:36:50.840Z,74.54
2023-04-18T06:39:56.873Z,73.26
2023-04-18T06:43:06.548Z,74.46
2023-04-18T06:46:12.675Z,73.27
2023-04-18T06:49:20.770Z,72.88
2023-04-18T06:52:31.202Z,73.25
2023-04-18T06:55:39.013Z,71.89
2023-04-18T06:58:47.841Z,71.48
2023-04-18T07:01:54.903Z,71.19
2023-04-18T07:05:00.988Z,70.01
2023-04-18T07:08:07.757Z,69.92
2023-04-18T07:11:15.972Z,69.35
2023-04-18T07:14:28.785Z,68.72
2023-04-18T07:17:36.283Z,66.38
2023-04-18T07:20:45.968Z,64.76
2023-04-18T07:23:52.512Z,65.05
2023-04-18T07:26:59.846Z,65.58
2023-04-18T07:30:10.813Z,66.80
2023-04-18T07:33:17.884Z,66.06
2023-04-18T07:36:24.566Z,64.46
2023-04-18T07:39:32.235Z,65.12
2023-04-18T07:42:40.836Z,65.27
2023-04-18T07:45:50.237Z,66.20
2023-04-18T07:48:56.090Z,65.88
2023-04-18T07:52:02.976Z,65.75
2023-04-18T07:55:10.949Z,63.51
2023-04-18T07:58:17.866Z,61.71
2023-04-18T08:01:27.588Z,61.93
2023-04-18T08:04:34.611Z,59.83
2023-04-18T08:07:40.668Z,58.41
2023-04-18T08:10:47.499Z,58.39
2023-04-18T08:13:53.570Z,57.50
2023-04-18T08:17:02.905Z,57.79
2023-04-18T08:20:10.630Z,57.43
2023-04-18T08:23:17.438Z,56.84
2023-04-18T08:26:23.458Z,57.51
2023-04-18T08:29:30.212Z,57.65
2023-04-18T08:32:39.950Z,57.71
2023-04-18T08:35:46.836Z,57.82
2023-04-18T08:38:52.899Z,57.91
2023-04-18T08:42:03.511Z,59.13
2023-04-18T08:45:14.071Z,59.33
2023-04-18T08:48:23.355Z,59.42
2023-04-18T08:51:33.653Z,58.39
2023-04-18T08:54:42.318Z,57.80
2023-04-18T08:57:48.485Z,54.20
2023-04-18T09:00:56.582Z,57.46
2023-04-18T09:04:08.384Z,56.33
2023-04-18T09:07:16.834Z,54.94
2023-04-18T09:10:46.843Z,54.15
2023-04-18T09:13:53.747Z,54.55
2023-04-18T09:17:00.556Z,54.82
2023-04-18T09:20:41.559Z,52.65
2023-04-18T09:23:48.039Z,53.87
2023-04-18T09:26:57.461Z,53.80
2023-04-18T09:30:03.357Z,51.64
2023-04-18T09:33:13.106Z,50.67
2023-04-18T09:36:28.022Z,49.75
2023-04-18T09:39:34.812Z,49.82
2023-04-18T09:42:41.223Z,49.22
2023-04-18T09:45:50.099Z,50.75
2023-04-18T09:48:56.123Z,51.21
2023-04-18T09:52:11.623Z,49.90
2023-04-18T09:55:21.577Z,50.30
2023-04-18T09:58:42.421Z,49.91
2023-04-18T10:01:48.823Z,48.56
2023-04-18T10:05:25.012Z,46.05
2023-04-18T10:08:36.018Z,47.07
2023-04-18T10:11:43.702Z,48.45
2023-04-18T10:14:50.423Z,47.43
2023-04-18T10:18:05.248Z,47.10
2023-04-18T10:21:12.894Z,47.97
2023-04-18T10:24:53.720Z,47.15
2023-04-18T10:28:16.527Z,46.46
2023-04-18T10:31:26.276Z,45.32
2023-04-18T10:34:32.205Z,44.21
2023-04-18T10:38:05.982Z,44.70
2023-04-18T10:41:29.916Z,44.25
2023-04-18T10:44:36.702Z,45.08
2023-04-18T10:47:42.773Z,44.24
2023-04-18T10:51:22.293Z,43.82
2023-04-18T10:54:42.113Z,43.93
2023-04-18T10:57:56.984Z,41.63
2023-04-18T11:01:09.252Z,41.13
2023-04-18T11:04:17.090Z,41.24
2023-04-18T11:07:23.463Z,39.87
2023-04-18T11:10:31.245Z,39.69
2023-04-18T11:13:39.965Z,37.35
2023-04-18T11:16:46.991Z,36.43
2023-04-18T11:19:53.939Z,37.61
2023-04-18T11:23:03.008Z,38.72
2023-04-18T11:26:09.588Z,38.15
2023-04-18T11:29:21.008Z,38.86
2023-04-18T11:32:27.425Z,38.42
2023-04-18T11:35:34.483Z,38.14
2023-04-18T11:38:44.521Z,39.45
2023-04-18T11:41:53.291Z,39.33
2023-04-18T11:45:05.044Z,40.52
2023-04-18T11:48:11.895Z,40.08
2023-04-18T11:51:38.880Z,39.77
2023-04-18T11:54:47.990Z,40.81
2023-04-18T11:57:56.284Z,40.31
2023-04-18T12:01:20.149Z,37.47
2023-04-18T12:04:26.468Z,37.42
2023-04-18T12:07:41.957Z,36.89
2023-04-18T12:10:52.080Z,37.21
2023-04-18T12:14:01.637Z,37.62
2023-04-18T12:17:11.570Z,37.34
2023-04-18T12:20:18.711Z,37.91
2023-04-18T12:23:37.478Z,38.77
2023-04-18T12:26:49.482Z,38.72
2023-04-18T12:29:55.387Z,38.59
2023-04-18T12:33:06.994Z,37.97
2023-04-18T12:36:13.350Z,37.95
2023-04-18T12:39:20.077Z,39.03
2023-04-18T12:42:26.028Z,38.52
2023-04-18T12:45:33.238Z,38.90
2023-04-18T12:48:41.770Z,37.92
2023-04-18T12:51:51.697Z,36.57
2023-04-18T12:54:58.471Z,35.58
2023-04-18T12:58:05.612Z,35.61
2023-04-18T13:01:11.547Z,36.19
2023-04-18T13:04:21.413Z,37.17
2023-04-18T13:07:28.064Z,38.05
2023-04-18T13:10:35.434Z,38.22
2023-04-18T13:13:41.431Z,37.62
2023-04-18T13:16:49.035Z,34.85
2023-04-18T13:19:57.787Z,34.16
2023-04-18T13:23:06.233Z,34.77
2023-04-18T13:26:12.365Z,34.63
2023-04-18T13:29:19.307Z,35.77
2023-04-18T13:32:25.696Z,36.45
2023-04-18T13:35:35.165Z,37.08
2023-04-18T13:38:41.057Z,36.74
2023-04-18T13:41:47.957Z,36.78
2023-04-18T13:44:54.255Z,36.78
2023-04-18T13:48:08.071Z,35.41
2023-04-18T13:51:22.345Z,36.35
2023-04-18T13:54:30.683Z,36.60
2023-04-18T13:57:37.634Z,35.84
2023-04-18T14:00:44.295Z,36.16
2023-04-18T14:03:50.499Z,35.87
2023-04-18T14:07:00.384Z,34.56
2023-04-18T14:10:09.690Z,35.62
2023-04-18T14:13:16.948Z,35.41
2023-04-18T14:16:26.372Z,36.21
2023-04-18T14:19:33.270Z,35.27
2023-04-18T14:22:41.873Z,37.51
2023-04-18T14:25:49.337Z,41.48
2023-04-18T14:28:55.260Z,42.53
2023-04-18T14:32:08.103Z,42.15
2023-04-18T14:35:23.685Z,42.60
2023-04-18T14:38:33.123Z,41.31
2023-04-18T14:41:39.069Z,41.62
2023-04-18T14:44:46.293Z,41.32
2023-04-18T14:47:52.444Z,41.61
2023-04-18T14:51:06.524Z,41.52
2023-04-18T14:54:15.300Z,42.53
2023-04-18T14:57:22.398Z,41.68
2023-04-18T15:00:28.682Z,41.73
2023-04-18T15:03:41.243Z,41.21
2023-04-18T15:06:47.289Z,40.97
2023-04-18T15:10:01.774Z,40.17
2023-04-18T15:13:08.071Z,39.32
2023-04-18T15:16:15.039Z,39.56
2023-04-18T15:19:21.021Z,38.72
2023-04-18T15:22:28.113Z,38.40
2023-04-18T15:25:36.695Z,39.62
2023-04-18T15:28:43.496Z,40.83
2023-04-18T15:31:49.813Z,41.72
2023-04-18T15:34:56.708Z,42.59
2023-04-18T15:38:02.651Z,42.34
2023-04-18T15:41:15.026Z,42.75
2023-04-18T15:44:21.036Z,43.44
2023-04-18T15:47:28.474Z,43.51
2023-04-18T15:50:34.468Z,43.70
2023-04-18T15:53:41.728Z,44.22
2023-04-18T15:56:50.220Z,45.02
2023-04-18T15:59:57.075Z,45.74
2023-04-18T16:03:03.131Z,45.75
2023-04-18T16:06:10.252Z,46.13
2023-04-18T16:09:16.663Z,45.12
2023-04-18T16:12:26.078Z,45.69
2023-04-18T16:15:35.864Z,45.82
2023-04-18T16:18:43.159Z,46.59
2023-04-18T16:21:49.407Z,46.17
2023-04-18T16:24:56.557Z,46.78
2023-04-18T16:28:05.223Z,46.85
2023-04-18T16:31:12.113Z,47.47
2023-04-18T16:34:18.432Z,47.38
2023-04-18T16:37:25.332Z,47.92
2023-04-18T16:40:32.256Z,48.03
2023-04-18T16:43:44.957Z,48.38
2023-04-18T16:46:52.642Z,48.42
2023-04-18T16:50:00.932Z,48.78
2023-04-18T16:53:27.984Z,48.96
2023-04-18T16:56:35.126Z,49.18
2023-04-18T16:59:46.076Z,49.59
2023-04-18T17:02:56.308Z,50.70
2023-04-18T17:06:02.388Z,52.29
2023-04-18T17:09:09.242Z,52.86
2023-04-18T17:12:15.197Z,53.68
2023-04-18T17:15:25.432Z,54.75
2023-04-18T17:18:31.525Z,55.19
2023-04-18T17:21:39.215Z,54.85
2023-04-18T17:24:45.461Z,55.01
2023-04-18T17:27:52.381Z,56.35
2023-04-18T17:31:05.082Z,56.58
2023-04-18T17:34:11.957Z,56.75
2023-04-18T17:37:17.944Z,57.40
2023-04-18T17:40:25.107Z,57.81
2023-04-18T17:43:31.483Z,58.19
2023-04-18T17:46:48.192Z,58.37
2023-04-18T17:49:55.029Z,58.12
2023-04-18T17:53:01.814Z,58.94
2023-04-18T17:56:15.214Z,58.50
2023-04-18T17:59:22.127Z,58.99
2023-04-18T18:02:31.229Z,59.45
2023-04-18T18:05:38.146Z,59.87
2023-04-18T18:08:46.209Z,60.08
2023-04-18T18:11:55.772Z,59.51
2023-04-18T18:15:04.950Z,60.37
2023-04-18T18:18:15.322Z,60.31
2023-04-18T18:21:21.397Z,60.77
2023-04-18T18:24:28.479Z,60.87
2023-04-18T18:27:34.762Z,61.34
2023-04-18T18:30:41.559Z,61.20
2023-04-18T18:33:50.111Z,61.50
2023-04-18T18:36:59.541Z,61.87
2023-04-18T18:40:08.629Z,61.50
2023-04-18T18:43:16.768Z,61.19
2023-04-18T18:46:22.936Z,61.02
2023-04-18T18:49:32.373Z,61.11
2023-04-18T18:52:40.956Z,61.15
2023-04-18T18:55:55.881Z,60.73
2023-04-18T18:59:05.061Z,60.83
2023-04-18T19:02:11.985Z,60.97
2023-04-18T19:05:21.626Z,61.22
2023-04-18T19:08:28.480Z,60.91
2023-04-18T19:11:35.055Z,61.95
2023-04-18T19:14:56.018Z,61.27
2023-04-18T19:18:02.133Z,61.75
2023-04-18T19:21:13.695Z,61.90
2023-04-18T19:24:20.985Z,62.51
2023-04-18T19:27:27.845Z,62.25
2023-04-18T19:30:33.861Z,62.42
2023-04-18T19:33:41.696Z,62.90
2023-04-18T19:36:50.246Z,64.52
2023-04-18T19:40:02.987Z,65.56
2023-04-18T19:43:09.105Z,67.91
2023-04-18T19:46:16.340Z,68.51
2023-04-18T19:49:22.716Z,69.55
2023-04-18T19:52:35.459Z,71.25
2023-04-18T19:55:44.309Z,71.72
2023-04-18T19:58:51.383Z,73.06
2023-04-18T20:02:00.564Z,73.91
2023-04-18T20:05:23.247Z,73.93
2023-04-18T20:08:31.857Z,74.05
2023-04-18T20:11:38.583Z,73.93
2023-04-18T20:14:45.515Z,74.07
2023-04-18T20:17:54.551Z,74.66
2023-04-18T20:21:00.789Z,75.15
2023-04-18T20:24:12.083Z,75.77
2023-04-18T20:27:20.738Z,76.63
2023-04-18T20:30:27.890Z,76.64
2023-04-18T20:33:36.437Z,77.90
2023-04-18T20:36:44.106Z,78.56
2023-04-18T20:39:53.204Z,79.33
2023-04-18T20:43:10.246Z,79.81
2023-04-18T20:46:29.679Z,80.19
2023-04-18T20:49:43.298Z,79.93
2023-04-18T20:52:49.389Z,80.00
2023-04-18T20:55:58.851Z,79.61
2023-04-18T20:59:04.950Z,80.03
2023-04-18T21:02:12.133Z,79.77
2023-04-18T21:05:18.061Z,79.82
2023-04-18T21:08:24.866Z,79.55
2023-04-18T21:11:33.462Z,79.55
2023-04-18T21:14:40.273Z,79.55
2023-04-18T21:17:46.287Z,79.82
2023-04-18T21:20:53.449Z,79.93
2023-04-18T21:23:59.385Z,80.26
2023-04-18T21:27:13.676Z,80.55
2023-04-18T21:30:19.636Z,80.24
2023-04-18T21:33:26.495Z,80.13
2023-04-18T21:36:34.294Z,80.49
2023-04-18T21:39:46.257Z,80.32
2023-04-18T21:42:54.757Z,80.74
2023-04-18T21:46:01.517Z,80.45
2023-04-18T21:49:16.371Z,81.04
2023-04-18T21:52:23.134Z,80.96
2023-04-18T21:55:29.228Z,81.05
2023-04-18T21:58:38.887Z,80.68
2023-04-18T22:01:49.082Z,79.98
2023-04-18T22:04:56.116Z,79.98
2023-04-18T22:08:03.264Z,79.55
2023-04-18T22:11:11.903Z,79.25
2023-04-18T22:14:23.785Z,79.28
2023-04-18T22:17:31.885Z,79.37
2023-04-18T22:20:39.275Z,79.69
2023-04-18T22:23:46.003Z,79.05
2023-04-18T22:26:52.004Z,79.21
2023-04-18T22:30:04.361Z,79.14
2023-04-18T22:33:10.527Z,79.35
2023-04-18T22:36:27.886Z,79.41
2023-04-18T22:39:34.300Z,79.05
2023-04-18T22:42:41.164Z,78.57
2023-04-18T22:45:49.785Z,79.19
2023-04-18T22:49:02.846Z,78.97
2023-04-18T22:52:12.235Z,78.79
2023-04-18T22:55:24.263Z,79.34
2023-04-18T22:58:31.651Z,79.54
2023-04-18T23:01:41.110Z,79.37
2023-04-18T23:04:47.345Z,79.16
2023-04-18T23:07:54.201Z,80.11
2023-04-18T23:11:00.118Z,79.91
2023-04-18T23:14:29.266Z,80.18
2023-04-18T23:17:37.916Z,80.86
2023-04-18T23:20:44.810Z,80.47
2023-04-18T23:23:50.976Z,79.87
2023-04-18T23:26:58.067Z,80.17
2023-04-18T23:30:04.120Z,80.72
2023-04-18T23:33:13.614Z,80.90
2023-04-18T23:36:24.262Z,80.41
2023-04-18T23:39:33.243Z,80.69
2023-04-18T23:42:44.278Z,80.84
2023-04-18T23:45:51.090Z,80.51
2023-04-18T23:48:59.526Z,79.97
2023-04-18T23:52:07.541Z,79.87
2023-04-18T23:55:13.945Z,79.89
2023-04-18T23:58:20.700Z,80.06
